sensor_id;sensor_type;location;lat;lon;timestamp;temperature;humidity
52209;DHT22;38507;53.132;6.394;2023-09-18T00:01:06;16.20;99.90
52209;DHT22;38507;53.132;6.394;2023-09-18T00:03:33;16.30;99.90
52209;DHT22;38507;53.132;6.394;2023-09-18T00:05:59;16.30;99.90
52209;DHT22;38507;53.132;6.394;2023-09-18T00:08:24;16.30;99.90
52209;DHT22;38507;53.132;6.394;2023-09-18T00:10:54;16.30;99.90
52209;DHT22;38507;53.132;6.394;2023-09-18T00:13:20;16.30;99.90
52209;DHT22;38507;53.132;6.394;2023-09-18T00:15:46;16.30;99.90
52209;DHT22;38507;53.132;6.394;2023-09-18T00:18:15;16.30;99.90
52209;DHT22;38507;53.132;6.394;2023-09-18T00:20:41;16.30;99.90
52209;DHT22;38507;53.132;6.394;2023-09-18T00:23:08;16.40;99.90
52209;DHT22;38507;53.132;6.394;2023-09-18T00:25:34;16.40;99.90
52209;DHT22;38507;53.132;6.394;2023-09-18T00:28:00;16.40;99.90
52209;DHT22;38507;53.132;6.394;2023-09-18T00:30:26;16.40;99.90
52209;DHT22;38507;53.132;6.394;2023-09-18T00:32:51;16.40;99.90
52209;DHT22;38507;53.132;6.394;2023-09-18T00:35:17;16.40;99.90
52209;DHT22;38507;53.132;6.394;2023-09-18T00:37:43;16.50;99.90
52209;DHT22;38507;53.132;6.394;2023-09-18T00:40:09;16.40;99.90
52209;DHT22;38507;53.132;6.394;2023-09-18T00:42:36;16.50;99.90
52209;DHT22;38507;53.132;6.394;2023-09-18T00:45:01;16.50;99.90
52209;DHT22;38507;53.132;6.394;2023-09-18T00:47:28;16.40;99.90
52209;DHT22;38507;53.132;6.394;2023-09-18T00:49:54;16.40;99.90
52209;DHT22;38507;53.132;6.394;2023-09-18T00:52:21;16.40;99.90
52209;DHT22;38507;53.132;6.394;2023-09-18T00:54:48;16.40;99.90
52209;DHT22;38507;53.132;6.394;2023-09-18T00:57:13;16.40;99.90
52209;DHT22;38507;53.132;6.394;2023-09-18T00:59:40;16.40;99.90
52209;DHT22;38507;53.132;6.394;2023-09-18T01:02:05;16.40;99.90
52209;DHT22;38507;53.132;6.394;2023-09-18T01:04:33;16.50;99.90
52209;DHT22;38507;53.132;6.394;2023-09-18T01:07:01;16.40;99.90
52209;DHT22;38507;53.132;6.394;2023-09-18T01:09:32;16.40;99.90
52209;DHT22;38507;53.132;6.394;2023-09-18T01:17:24;16.50;99.90
52209;DHT22;38507;53.132;6.394;2023-09-18T01:19:51;16.50;99.90
52209;DHT22;38507;53.132;6.394;2023-09-18T01:22:18;16.60;99.90
52209;DHT22;38507;53.132;6.394;2023-09-18T01:24:45;16.60;99.90
52209;DHT22;38507;53.132;6.394;2023-09-18T01:27:15;16.60;99.90
52209;DHT22;38507;53.132;6.394;2023-09-18T01:29:43;16.50;99.90
52209;DHT22;38507;53.132;6.394;2023-09-18T01:32:08;16.60;99.90
52209;DHT22;38507;53.132;6.394;2023-09-18T01:34:41;16.60;99.90
52209;DHT22;38507;53.132;6.394;2023-09-18T01:37:10;16.60;99.90
52209;DHT22;38507;53.132;6.394;2023-09-18T01:39:37;16.70;99.90
52209;DHT22;38507;53.132;6.394;2023-09-18T01:42:05;16.70;99.90
52209;DHT22;38507;53.132;6.394;2023-09-18T01:44:34;16.70;99.90
52209;DHT22;38507;53.132;6.394;2023-09-18T01:47:02;16.70;99.90
52209;DHT22;38507;53.132;6.394;2023-09-18T01:49:38;16.80;99.90
52209;DHT22;38507;53.132;6.394;2023-09-18T01:52:05;16.70;99.90
52209;DHT22;38507;53.132;6.394;2023-09-18T01:54:32;16.80;99.90
52209;DHT22;38507;53.132;6.394;2023-09-18T01:56:58;16.80;99.90
52209;DHT22;38507;53.132;6.394;2023-09-18T01:59:24;16.80;99.90
52209;DHT22;38507;53.132;6.394;2023-09-18T02:01:50;16.80;99.90
52209;DHT22;38507;53.132;6.394;2023-09-18T02:04:17;16.80;99.90
52209;DHT22;38507;53.132;6.394;2023-09-18T02:06:43;16.80;99.90
52209;DHT22;38507;53.132;6.394;2023-09-18T02:09:08;16.80;99.90
52209;DHT22;38507;53.132;6.394;2023-09-18T02:11:42;16.80;99.90
52209;DHT22;38507;53.132;6.394;2023-09-18T02:14:08;16.80;99.90
52209;DHT22;38507;53.132;6.394;2023-09-18T02:16:36;16.90;99.90
52209;DHT22;38507;53.132;6.394;2023-09-18T02:19:03;16.90;99.90
52209;DHT22;38507;53.132;6.394;2023-09-18T02:21:29;16.90;99.90
52209;DHT22;38507;53.132;6.394;2023-09-18T02:23:54;16.90;99.90
52209;DHT22;38507;53.132;6.394;2023-09-18T02:26:21;16.90;99.90
52209;DHT22;38507;53.132;6.394;2023-09-18T02:28:47;16.90;99.90
52209;DHT22;38507;53.132;6.394;2023-09-18T02:31:13;16.90;99.90
52209;DHT22;38507;53.132;6.394;2023-09-18T02:33:39;16.90;99.90
52209;DHT22;38507;53.132;6.394;2023-09-18T02:36:06;16.90;99.90
52209;DHT22;38507;53.132;6.394;2023-09-18T02:38:32;17.00;99.90
52209;DHT22;38507;53.132;6.394;2023-09-18T02:40:59;17.00;99.90
52209;DHT22;38507;53.132;6.394;2023-09-18T02:43:24;16.90;99.90
52209;DHT22;38507;53.132;6.394;2023-09-18T02:45:50;17.00;99.90
52209;DHT22;38507;53.132;6.394;2023-09-18T02:48:17;17.00;99.90
52209;DHT22;38507;53.132;6.394;2023-09-18T02:50:43;17.00;99.90
52209;DHT22;38507;53.132;6.394;2023-09-18T02:53:18;17.00;99.90
52209;DHT22;38507;53.132;6.394;2023-09-18T02:55:45;17.00;99.90
52209;DHT22;38507;53.132;6.394;2023-09-18T02:58:10;17.00;99.90
52209;DHT22;38507;53.132;6.394;2023-09-18T03:00:49;17.00;99.90
52209;DHT22;38507;53.132;6.394;2023-09-18T03:03:16;17.00;99.90
52209;DHT22;38507;53.132;6.394;2023-09-18T03:05:43;17.10;99.90
52209;DHT22;38507;53.132;6.394;2023-09-18T03:08:10;17.10;99.90
52209;DHT22;38507;53.132;6.394;2023-09-18T03:10:38;17.10;99.90
52209;DHT22;38507;53.132;6.394;2023-09-18T03:13:09;17.10;99.90
52209;DHT22;38507;53.132;6.394;2023-09-18T03:15:36;17.10;99.90
52209;DHT22;38507;53.132;6.394;2023-09-18T03:18:03;17.10;99.90
52209;DHT22;38507;53.132;6.394;2023-09-18T03:20:30;17.20;99.90
52209;DHT22;38507;53.132;6.394;2023-09-18T03:22:58;17.20;99.90
52209;DHT22;38507;53.132;6.394;2023-09-18T03:25:25;17.20;99.90
52209;DHT22;38507;53.132;6.394;2023-09-18T03:27:55;17.20;99.90
52209;DHT22;38507;53.132;6.394;2023-09-18T03:30:22;17.20;99.90
52209;DHT22;38507;53.132;6.394;2023-09-18T03:32:49;17.20;99.90
52209;DHT22;38507;53.132;6.394;2023-09-18T03:35:15;17.30;99.90
52209;DHT22;38507;53.132;6.394;2023-09-18T03:37:50;17.20;99.90
52209;DHT22;38507;53.132;6.394;2023-09-18T03:40:18;17.30;99.90
52209;DHT22;38507;53.132;6.394;2023-09-18T03:42:44;17.30;99.90
52209;DHT22;38507;53.132;6.394;2023-09-18T03:45:10;17.20;99.90
52209;DHT22;38507;53.132;6.394;2023-09-18T03:47:37;17.30;99.90
52209;DHT22;38507;53.132;6.394;2023-09-18T03:50:08;17.30;99.90
52209;DHT22;38507;53.132;6.394;2023-09-18T03:52:34;17.30;99.90
52209;DHT22;38507;53.132;6.394;2023-09-18T03:55:00;17.30;99.90
52209;DHT22;38507;53.132;6.394;2023-09-18T03:57:26;17.30;99.90
52209;DHT22;38507;53.132;6.394;2023-09-18T03:59:51;17.30;99.90
52209;DHT22;38507;53.132;6.394;2023-09-18T04:02:17;17.30;99.90
52209;DHT22;38507;53.132;6.394;2023-09-18T04:04:43;17.30;99.90
52209;DHT22;38507;53.132;6.394;2023-09-18T04:07:09;17.30;99.90
52209;DHT22;38507;53.132;6.394;2023-09-18T04:09:35;17.30;99.90
52209;DHT22;38507;53.132;6.394;2023-09-18T04:12:01;17.30;99.90
52209;DHT22;38507;53.132;6.394;2023-09-18T04:14:27;17.30;99.90
52209;DHT22;38507;53.132;6.394;2023-09-18T04:16:53;17.30;99.90
52209;DHT22;38507;53.132;6.394;2023-09-18T04:19:18;17.30;99.90
52209;DHT22;38507;53.132;6.394;2023-09-18T04:21:44;17.30;99.90
52209;DHT22;38507;53.132;6.394;2023-09-18T04:24:10;17.30;99.90
52209;DHT22;38507;53.132;6.394;2023-09-18T04:26:35;17.30;99.90
52209;DHT22;38507;53.132;6.394;2023-09-18T04:29:03;17.30;99.90
52209;DHT22;38507;53.132;6.394;2023-09-18T04:31:29;17.40;99.90
52209;DHT22;38507;53.132;6.394;2023-09-18T04:33:55;17.40;99.90
52209;DHT22;38507;53.132;6.394;2023-09-18T04:36:21;17.40;99.90
52209;DHT22;38507;53.132;6.394;2023-09-18T04:38:46;17.40;99.90
52209;DHT22;38507;53.132;6.394;2023-09-18T04:41:13;17.40;99.90
52209;DHT22;38507;53.132;6.394;2023-09-18T04:43:40;17.40;99.90
52209;DHT22;38507;53.132;6.394;2023-09-18T04:46:07;17.40;99.90
52209;DHT22;38507;53.132;6.394;2023-09-18T04:48:32;17.40;99.90
52209;DHT22;38507;53.132;6.394;2023-09-18T04:50:59;17.40;99.90
52209;DHT22;38507;53.132;6.394;2023-09-18T04:53:29;17.50;99.90
52209;DHT22;38507;53.132;6.394;2023-09-18T04:55:55;17.50;99.90
52209;DHT22;38507;53.132;6.394;2023-09-18T04:58:21;17.50;99.90
52209;DHT22;38507;53.132;6.394;2023-09-18T05:00:53;17.50;99.90
52209;DHT22;38507;53.132;6.394;2023-09-18T05:03:18;17.60;99.90
52209;DHT22;38507;53.132;6.394;2023-09-18T05:05:44;17.50;99.90
52209;DHT22;38507;53.132;6.394;2023-09-18T05:08:10;17.60;99.90
52209;DHT22;38507;53.132;6.394;2023-09-18T05:10:36;17.60;99.90
52209;DHT22;38507;53.132;6.394;2023-09-18T05:13:02;17.60;99.90
52209;DHT22;38507;53.132;6.394;2023-09-18T05:15:29;17.60;99.90
52209;DHT22;38507;53.132;6.394;2023-09-18T05:17:55;17.60;99.90
52209;DHT22;38507;53.132;6.394;2023-09-18T05:20:24;17.60;99.90
52209;DHT22;38507;53.132;6.394;2023-09-18T05:22:51;17.60;99.90
52209;DHT22;38507;53.132;6.394;2023-09-18T05:25:21;17.60;99.90
52209;DHT22;38507;53.132;6.394;2023-09-18T05:27:48;17.60;99.90
52209;DHT22;38507;53.132;6.394;2023-09-18T05:30:23;17.70;99.90
52209;DHT22;38507;53.132;6.394;2023-09-18T05:32:49;17.60;99.90
52209;DHT22;38507;53.132;6.394;2023-09-18T05:35:15;17.70;99.90
52209;DHT22;38507;53.132;6.394;2023-09-18T05:37:42;17.70;99.90
52209;DHT22;38507;53.132;6.394;2023-09-18T05:40:10;17.70;99.90
52209;DHT22;38507;53.132;6.394;2023-09-18T05:42:40;17.80;99.90
52209;DHT22;38507;53.132;6.394;2023-09-18T05:45:08;17.80;99.90
52209;DHT22;38507;53.132;6.394;2023-09-18T05:47:34;17.80;99.90
52209;DHT22;38507;53.132;6.394;2023-09-18T05:50:09;17.80;99.90
52209;DHT22;38507;53.132;6.394;2023-09-18T05:52:35;17.80;99.90
52209;DHT22;38507;53.132;6.394;2023-09-18T05:55:04;17.90;99.90
52209;DHT22;38507;53.132;6.394;2023-09-18T05:57:30;17.80;99.90
52209;DHT22;38507;53.132;6.394;2023-09-18T05:59:56;17.90;99.90
52209;DHT22;38507;53.132;6.394;2023-09-18T06:02:22;17.90;99.90
52209;DHT22;38507;53.132;6.394;2023-09-18T06:04:48;17.90;99.90
52209;DHT22;38507;53.132;6.394;2023-09-18T06:07:14;17.90;99.90
52209;DHT22;38507;53.132;6.394;2023-09-18T06:09:40;18.00;99.90
52209;DHT22;38507;53.132;6.394;2023-09-18T06:12:07;18.00;99.90
52209;DHT22;38507;53.132;6.394;2023-09-18T06:14:32;18.00;99.90
52209;DHT22;38507;53.132;6.394;2023-09-18T06:17:04;18.00;99.90
52209;DHT22;38507;53.132;6.394;2023-09-18T06:19:29;18.10;99.90
52209;DHT22;38507;53.132;6.394;2023-09-18T06:21:55;18.10;99.90
52209;DHT22;38507;53.132;6.394;2023-09-18T06:24:20;18.10;99.90
52209;DHT22;38507;53.132;6.394;2023-09-18T06:26:46;18.10;99.90
52209;DHT22;38507;53.132;6.394;2023-09-18T06:29:12;18.10;99.90
52209;DHT22;38507;53.132;6.394;2023-09-18T06:31:37;18.20;99.90
52209;DHT22;38507;53.132;6.394;2023-09-18T06:34:03;18.20;99.90
52209;DHT22;38507;53.132;6.394;2023-09-18T06:36:29;18.30;99.90
52209;DHT22;38507;53.132;6.394;2023-09-18T06:38:54;18.30;99.90
52209;DHT22;38507;53.132;6.394;2023-09-18T06:41:20;18.30;99.90
52209;DHT22;38507;53.132;6.394;2023-09-18T06:43:45;18.40;99.90
52209;DHT22;38507;53.132;6.394;2023-09-18T06:46:11;18.40;99.90
52209;DHT22;38507;53.132;6.394;2023-09-18T06:48:37;18.40;99.90
52209;DHT22;38507;53.132;6.394;2023-09-18T06:51:02;18.40;99.90
52209;DHT22;38507;53.132;6.394;2023-09-18T06:53:28;18.50;99.90
52209;DHT22;38507;53.132;6.394;2023-09-18T06:55:54;18.50;99.90
52209;DHT22;38507;53.132;6.394;2023-09-18T06:58:20;18.50;99.90
52209;DHT22;38507;53.132;6.394;2023-09-18T07:00:47;18.50;99.90
52209;DHT22;38507;53.132;6.394;2023-09-18T07:03:13;18.50;99.90
52209;DHT22;38507;53.132;6.394;2023-09-18T07:05:40;18.50;99.90
52209;DHT22;38507;53.132;6.394;2023-09-18T07:08:05;18.60;99.90
52209;DHT22;38507;53.132;6.394;2023-09-18T07:10:35;18.60;99.90
52209;DHT22;38507;53.132;6.394;2023-09-18T07:13:01;18.60;99.90
52209;DHT22;38507;53.132;6.394;2023-09-18T07:15:26;18.60;99.90
52209;DHT22;38507;53.132;6.394;2023-09-18T07:17:52;18.70;99.90
52209;DHT22;38507;53.132;6.394;2023-09-18T07:20:18;18.70;99.90
52209;DHT22;38507;53.132;6.394;2023-09-18T07:22:47;18.70;99.90
52209;DHT22;38507;53.132;6.394;2023-09-18T07:25:14;18.70;99.90
52209;DHT22;38507;53.132;6.394;2023-09-18T07:27:39;18.70;99.90
52209;DHT22;38507;53.132;6.394;2023-09-18T07:30:10;18.70;99.90
52209;DHT22;38507;53.132;6.394;2023-09-18T07:32:36;18.70;99.90
52209;DHT22;38507;53.132;6.394;2023-09-18T07:35:02;18.70;99.90
52209;DHT22;38507;53.132;6.394;2023-09-18T07:37:30;18.70;99.90
52209;DHT22;38507;53.132;6.394;2023-09-18T07:39:56;18.70;99.90
52209;DHT22;38507;53.132;6.394;2023-09-18T07:42:25;18.70;99.90
52209;DHT22;38507;53.132;6.394;2023-09-18T07:44:51;18.70;99.90
52209;DHT22;38507;53.132;6.394;2023-09-18T07:47:20;18.70;99.90
52209;DHT22;38507;53.132;6.394;2023-09-18T07:49:45;18.70;99.90
52209;DHT22;38507;53.132;6.394;2023-09-18T07:52:12;18.70;99.90
52209;DHT22;38507;53.132;6.394;2023-09-18T07:54:37;18.70;99.90
52209;DHT22;38507;53.132;6.394;2023-09-18T07:57:03;18.70;99.90
52209;DHT22;38507;53.132;6.394;2023-09-18T07:59:29;18.70;99.90
52209;DHT22;38507;53.132;6.394;2023-09-18T08:01:54;18.70;99.90
52209;DHT22;38507;53.132;6.394;2023-09-18T08:04:20;18.70;99.90
52209;DHT22;38507;53.132;6.394;2023-09-18T08:06:47;18.70;99.90
52209;DHT22;38507;53.132;6.394;2023-09-18T08:09:13;18.70;99.90
52209;DHT22;38507;53.132;6.394;2023-09-18T08:11:42;18.70;99.90
52209;DHT22;38507;53.132;6.394;2023-09-18T08:14:09;18.70;99.90
52209;DHT22;38507;53.132;6.394;2023-09-18T08:16:35;18.70;99.90
52209;DHT22;38507;53.132;6.394;2023-09-18T08:19:04;18.70;99.90
52209;DHT22;38507;53.132;6.394;2023-09-18T08:21:29;18.70;99.90
52209;DHT22;38507;53.132;6.394;2023-09-18T08:23:55;18.70;99.90
52209;DHT22;38507;53.132;6.394;2023-09-18T08:26:21;18.70;99.90
52209;DHT22;38507;53.132;6.394;2023-09-18T08:28:48;18.70;99.90
52209;DHT22;38507;53.132;6.394;2023-09-18T08:31:13;18.70;99.90
52209;DHT22;38507;53.132;6.394;2023-09-18T08:33:44;18.70;99.90
52209;DHT22;38507;53.132;6.394;2023-09-18T08:36:10;18.70;99.90
52209;DHT22;38507;53.132;6.394;2023-09-18T08:38:36;18.70;99.90
52209;DHT22;38507;53.132;6.394;2023-09-18T08:41:01;18.70;99.90
52209;DHT22;38507;53.132;6.394;2023-09-18T08:43:29;18.80;99.90
52209;DHT22;38507;53.132;6.394;2023-09-18T08:45:56;18.90;99.90
52209;DHT22;38507;53.132;6.394;2023-09-18T08:48:29;18.90;99.90
52209;DHT22;38507;53.132;6.394;2023-09-18T08:51:05;18.90;99.90
52209;DHT22;38507;53.132;6.394;2023-09-18T08:53:31;18.90;99.90
52209;DHT22;38507;53.132;6.394;2023-09-18T08:55:58;19.00;99.90
52209;DHT22;38507;53.132;6.394;2023-09-18T08:58:28;19.00;99.90
52209;DHT22;38507;53.132;6.394;2023-09-18T09:00:55;19.00;99.90
52209;DHT22;38507;53.132;6.394;2023-09-18T09:03:21;19.00;99.90
52209;DHT22;38507;53.132;6.394;2023-09-18T09:05:46;19.00;99.90
52209;DHT22;38507;53.132;6.394;2023-09-18T09:08:12;19.00;99.90
52209;DHT22;38507;53.132;6.394;2023-09-18T09:10:37;19.00;99.90
52209;DHT22;38507;53.132;6.394;2023-09-18T09:13:04;19.10;99.90
52209;DHT22;38507;53.132;6.394;2023-09-18T09:15:46;19.10;99.90
52209;DHT22;38507;53.132;6.394;2023-09-18T09:18:13;19.10;99.90
52209;DHT22;38507;53.132;6.394;2023-09-18T09:20:41;19.10;99.90
52209;DHT22;38507;53.132;6.394;2023-09-18T09:23:09;19.10;99.90
52209;DHT22;38507;53.132;6.394;2023-09-18T09:25:35;19.20;99.90
52209;DHT22;38507;53.132;6.394;2023-09-18T09:28:06;19.20;99.90
52209;DHT22;38507;53.132;6.394;2023-09-18T09:30:32;19.30;99.90
52209;DHT22;38507;53.132;6.394;2023-09-18T09:32:59;19.30;99.90
52209;DHT22;38507;53.132;6.394;2023-09-18T09:35:33;19.30;99.90
52209;DHT22;38507;53.132;6.394;2023-09-18T09:38:00;19.40;99.90
52209;DHT22;38507;53.132;6.394;2023-09-18T09:40:28;19.40;99.90
52209;DHT22;38507;53.132;6.394;2023-09-18T09:42:55;19.40;99.90
52209;DHT22;38507;53.132;6.394;2023-09-18T09:45:30;19.50;99.90
52209;DHT22;38507;53.132;6.394;2023-09-18T09:48:00;19.50;99.90
52209;DHT22;38507;53.132;6.394;2023-09-18T09:50:26;19.50;99.90
52209;DHT22;38507;53.132;6.394;2023-09-18T09:52:53;19.50;99.90
52209;DHT22;38507;53.132;6.394;2023-09-18T09:57:48;19.70;99.90
52209;DHT22;38507;53.132;6.394;2023-09-18T10:00:14;19.70;99.90
52209;DHT22;38507;53.132;6.394;2023-09-18T10:02:58;19.70;99.90
52209;DHT22;38507;53.132;6.394;2023-09-18T10:05:31;19.80;99.90
52209;DHT22;38507;53.132;6.394;2023-09-18T10:07:59;19.90;99.90
52209;DHT22;38507;53.132;6.394;2023-09-18T10:10:33;19.90;99.90
52209;DHT22;38507;53.132;6.394;2023-09-18T10:13:04;20.00;99.90
52209;DHT22;38507;53.132;6.394;2023-09-18T10:15:34;20.10;99.90
52209;DHT22;38507;53.132;6.394;2023-09-18T10:18:05;20.20;99.90
52209;DHT22;38507;53.132;6.394;2023-09-18T10:20:38;20.40;99.90
52209;DHT22;38507;53.132;6.394;2023-09-18T10:23:15;20.50;99.90
52209;DHT22;38507;53.132;6.394;2023-09-18T10:25:48;20.60;99.90
52209;DHT22;38507;53.132;6.394;2023-09-18T10:28:17;20.80;99.90
52209;DHT22;38507;53.132;6.394;2023-09-18T10:30:43;20.80;99.90
52209;DHT22;38507;53.132;6.394;2023-09-18T10:33:09;20.80;99.90
52209;DHT22;38507;53.132;6.394;2023-09-18T10:35:35;20.90;99.90
52209;DHT22;38507;53.132;6.394;2023-09-18T10:38:03;20.90;99.90
52209;DHT22;38507;53.132;6.394;2023-09-18T10:40:31;20.90;99.90
52209;DHT22;38507;53.132;6.394;2023-09-18T10:42:59;21.00;99.90
52209;DHT22;38507;53.132;6.394;2023-09-18T10:45:27;21.10;99.90
52209;DHT22;38507;53.132;6.394;2023-09-18T10:47:54;21.00;99.90
52209;DHT22;38507;53.132;6.394;2023-09-18T10:50:25;21.10;99.90
52209;DHT22;38507;53.132;6.394;2023-09-18T10:52:51;21.10;99.90
52209;DHT22;38507;53.132;6.394;2023-09-18T10:55:16;21.30;99.90
52209;DHT22;38507;53.132;6.394;2023-09-18T10:57:56;21.40;99.90
52209;DHT22;38507;53.132;6.394;2023-09-18T11:00:25;21.70;99.90
52209;DHT22;38507;53.132;6.394;2023-09-18T11:02:52;21.80;99.90
52209;DHT22;38507;53.132;6.394;2023-09-18T11:05:32;21.80;99.90
52209;DHT22;38507;53.132;6.394;2023-09-18T11:08:33;21.70;99.90
52209;DHT22;38507;53.132;6.394;2023-09-18T11:11:10;21.60;99.90
52209;DHT22;38507;53.132;6.394;2023-09-18T11:16:32;21.40;99.90
52209;DHT22;38507;53.132;6.394;2023-09-18T11:21:28;21.60;99.90
52209;DHT22;38507;53.132;6.394;2023-09-18T11:26:28;21.80;99.90
52209;DHT22;38507;53.132;6.394;2023-09-18T11:28:55;22.00;99.90
52209;DHT22;38507;53.132;6.394;2023-09-18T11:31:21;22.20;99.90
52209;DHT22;38507;53.132;6.394;2023-09-18T11:34:13;22.20;99.90
52209;DHT22;38507;53.132;6.394;2023-09-18T11:36:40;22.50;99.90
52209;DHT22;38507;53.132;6.394;2023-09-18T11:39:06;22.70;99.90
52209;DHT22;38507;53.132;6.394;2023-09-18T11:41:33;23.00;99.90
52209;DHT22;38507;53.132;6.394;2023-09-18T11:46:50;23.20;99.90
52209;DHT22;38507;53.132;6.394;2023-09-18T11:49:24;23.30;99.90
52209;DHT22;38507;53.132;6.394;2023-09-18T11:51:53;23.10;99.90
52209;DHT22;38507;53.132;6.394;2023-09-18T11:54:19;22.90;99.90
52209;DHT22;38507;53.132;6.394;2023-09-18T11:56:46;22.90;99.90
52209;DHT22;38507;53.132;6.394;2023-09-18T11:59:12;23.00;99.90
52209;DHT22;38507;53.132;6.394;2023-09-18T12:01:38;23.30;99.90
52209;DHT22;38507;53.132;6.394;2023-09-18T12:04:09;23.40;99.90
52209;DHT22;38507;53.132;6.394;2023-09-18T12:06:35;23.30;99.90
52209;DHT22;38507;53.132;6.394;2023-09-18T12:09:02;23.30;99.90
52209;DHT22;38507;53.132;6.394;2023-09-18T12:11:35;23.20;99.90
52209;DHT22;38507;53.132;6.394;2023-09-18T12:14:04;23.30;99.90
52209;DHT22;38507;53.132;6.394;2023-09-18T12:16:31;23.20;99.90
52209;DHT22;38507;53.132;6.394;2023-09-18T12:18:56;23.10;99.90
52209;DHT22;38507;53.132;6.394;2023-09-18T12:21:23;23.30;99.90
52209;DHT22;38507;53.132;6.394;2023-09-18T12:23:48;23.40;99.90
52209;DHT22;38507;53.132;6.394;2023-09-18T12:26:16;23.50;99.90
52209;DHT22;38507;53.132;6.394;2023-09-18T12:28:45;23.60;99.90
52209;DHT22;38507;53.132;6.394;2023-09-18T12:31:15;23.40;99.90
52209;DHT22;38507;53.132;6.394;2023-09-18T12:33:42;23.20;99.90
52209;DHT22;38507;53.132;6.394;2023-09-18T12:36:09;23.00;99.90
52209;DHT22;38507;53.132;6.394;2023-09-18T12:38:37;22.80;99.90
52209;DHT22;38507;53.132;6.394;2023-09-18T12:41:04;22.60;99.90
52209;DHT22;38507;53.132;6.394;2023-09-18T12:43:38;22.50;99.90
52209;DHT22;38507;53.132;6.394;2023-09-18T12:46:06;22.60;99.90
52209;DHT22;38507;53.132;6.394;2023-09-18T12:48:36;22.70;99.90
52209;DHT22;38507;53.132;6.394;2023-09-18T12:51:03;23.00;99.90
52209;DHT22;38507;53.132;6.394;2023-09-18T12:53:29;23.30;99.90
52209;DHT22;38507;53.132;6.394;2023-09-18T12:56:12;23.50;99.90
52209;DHT22;38507;53.132;6.394;2023-09-18T12:58:38;23.70;99.90
52209;DHT22;38507;53.132;6.394;2023-09-18T13:01:08;23.70;99.90
52209;DHT22;38507;53.132;6.394;2023-09-18T13:03:45;23.50;99.90
52209;DHT22;38507;53.132;6.394;2023-09-18T13:06:16;23.60;99.90
52209;DHT22;38507;53.132;6.394;2023-09-18T13:08:46;23.70;99.90
52209;DHT22;38507;53.132;6.394;2023-09-18T13:11:12;23.80;99.90
52209;DHT22;38507;53.132;6.394;2023-09-18T13:13:40;23.80;99.90
52209;DHT22;38507;53.132;6.394;2023-09-18T13:16:08;23.60;99.90
52209;DHT22;38507;53.132;6.394;2023-09-18T13:18:37;23.50;99.90
52209;DHT22;38507;53.132;6.394;2023-09-18T13:21:12;23.30;99.90
52209;DHT22;38507;53.132;6.394;2023-09-18T13:23:38;23.10;99.90
52209;DHT22;38507;53.132;6.394;2023-09-18T13:26:05;23.00;99.90
52209;DHT22;38507;53.132;6.394;2023-09-18T13:28:32;22.90;99.90
52209;DHT22;38507;53.132;6.394;2023-09-18T13:30:59;22.80;99.90
52209;DHT22;38507;53.132;6.394;2023-09-18T13:33:25;22.80;99.90
52209;DHT22;38507;53.132;6.394;2023-09-18T13:35:52;23.00;99.90
52209;DHT22;38507;53.132;6.394;2023-09-18T13:38:21;23.10;99.90
52209;DHT22;38507;53.132;6.394;2023-09-18T13:40:47;23.10;99.90
52209;DHT22;38507;53.132;6.394;2023-09-18T13:43:14;23.10;99.90
52209;DHT22;38507;53.132;6.394;2023-09-18T13:45:47;23.20;99.90
52209;DHT22;38507;53.132;6.394;2023-09-18T13:48:13;23.40;99.90
52209;DHT22;38507;53.132;6.394;2023-09-18T13:50:41;23.60;99.90
52209;DHT22;38507;53.132;6.394;2023-09-18T13:53:07;23.80;99.90
52209;DHT22;38507;53.132;6.394;2023-09-18T13:55:34;23.90;99.90
52209;DHT22;38507;53.132;6.394;2023-09-18T13:58:00;23.90;99.90
52209;DHT22;38507;53.132;6.394;2023-09-18T14:00:28;23.90;99.90
52209;DHT22;38507;53.132;6.394;2023-09-18T14:02:54;24.00;99.90
52209;DHT22;38507;53.132;6.394;2023-09-18T14:05:20;24.00;99.90
52209;DHT22;38507;53.132;6.394;2023-09-18T14:07:45;23.90;99.90
52209;DHT22;38507;53.132;6.394;2023-09-18T14:10:13;23.80;99.90
52209;DHT22;38507;53.132;6.394;2023-09-18T14:12:41;23.60;99.90
52209;DHT22;38507;53.132;6.394;2023-09-18T14:15:08;23.50;99.90
52209;DHT22;38507;53.132;6.394;2023-09-18T14:17:35;23.60;99.90
52209;DHT22;38507;53.132;6.394;2023-09-18T14:20:01;23.50;99.90
52209;DHT22;38507;53.132;6.394;2023-09-18T14:22:35;23.50;99.90
52209;DHT22;38507;53.132;6.394;2023-09-18T14:25:01;23.50;99.90
52209;DHT22;38507;53.132;6.394;2023-09-18T14:27:30;23.50;99.90
52209;DHT22;38507;53.132;6.394;2023-09-18T14:29:56;23.60;99.90
52209;DHT22;38507;53.132;6.394;2023-09-18T14:32:22;23.60;99.90
52209;DHT22;38507;53.132;6.394;2023-09-18T14:34:48;23.60;99.90
52209;DHT22;38507;53.132;6.394;2023-09-18T14:37:13;23.50;99.90
52209;DHT22;38507;53.132;6.394;2023-09-18T14:39:39;23.30;99.90
52209;DHT22;38507;53.132;6.394;2023-09-18T14:42:05;23.10;99.90
52209;DHT22;38507;53.132;6.394;2023-09-18T14:44:31;23.10;99.90
52209;DHT22;38507;53.132;6.394;2023-09-18T14:46:57;23.10;99.90
52209;DHT22;38507;53.132;6.394;2023-09-18T14:49:23;23.40;99.90
52209;DHT22;38507;53.132;6.394;2023-09-18T14:51:49;23.60;99.90
52209;DHT22;38507;53.132;6.394;2023-09-18T14:54:19;23.70;99.90
52209;DHT22;38507;53.132;6.394;2023-09-18T14:56:45;23.80;99.90
52209;DHT22;38507;53.132;6.394;2023-09-18T14:59:12;23.80;99.90
52209;DHT22;38507;53.132;6.394;2023-09-18T15:01:38;23.70;99.90
52209;DHT22;38507;53.132;6.394;2023-09-18T15:04:04;23.60;99.90
52209;DHT22;38507;53.132;6.394;2023-09-18T15:06:30;23.50;99.90
52209;DHT22;38507;53.132;6.394;2023-09-18T15:08:56;23.40;99.90
52209;DHT22;38507;53.132;6.394;2023-09-18T15:11:22;23.40;99.90
52209;DHT22;38507;53.132;6.394;2023-09-18T15:13:49;23.40;99.90
52209;DHT22;38507;53.132;6.394;2023-09-18T15:16:14;23.50;99.90
52209;DHT22;38507;53.132;6.394;2023-09-18T15:18:40;23.50;99.90
52209;DHT22;38507;53.132;6.394;2023-09-18T15:21:06;23.60;99.90
52209;DHT22;38507;53.132;6.394;2023-09-18T15:23:32;23.70;99.90
52209;DHT22;38507;53.132;6.394;2023-09-18T15:25:57;23.80;99.90
52209;DHT22;38507;53.132;6.394;2023-09-18T15:28:24;23.80;99.90
52209;DHT22;38507;53.132;6.394;2023-09-18T15:30:51;23.90;99.90
52209;DHT22;38507;53.132;6.394;2023-09-18T15:33:17;23.80;99.90
52209;DHT22;38507;53.132;6.394;2023-09-18T15:35:43;23.90;99.90
52209;DHT22;38507;53.132;6.394;2023-09-18T15:38:09;23.90;99.90
52209;DHT22;38507;53.132;6.394;2023-09-18T15:40:36;24.00;99.90
52209;DHT22;38507;53.132;6.394;2023-09-18T15:43:02;23.90;99.90
52209;DHT22;38507;53.132;6.394;2023-09-18T15:45:27;23.80;99.90
52209;DHT22;38507;53.132;6.394;2023-09-18T15:47:53;23.80;99.90
52209;DHT22;38507;53.132;6.394;2023-09-18T15:50:19;23.80;99.90